Nanticoke — VCQL — position and weather

sailwx.info

Track history (hours):
 
Tides and Currents Weather Stations Pressure Air Temp Water Temp Dewpoint Dewpoint Depression Visibility Wind Speed Wind Dir Waves Ship Positions

Nanticoke

Last reported at 2014-Sep-23 15:26 UTC. Time now 2014-Sep-23 16:23 UTC.
Position N 47°34' W 052°41'.

Length 222 m; draft 7.4 m.

Type: Cargo ship. MMSI: 316043000.

Date/timePositionNaut miles runAvg speedWind from/ knotsBaromVisibWave heightAir tempDewpointWater temp
2014-Sep-23 15:26N 47°34' W 052°41'1 0.5
2014-Sep-23 14:23N 47°34' W 052°42'0 0.0
2014-Sep-23 12:20N 47°34' W 052°42'0 0.0
2014-Sep-23 11:23N 47°34' W 052°42'0 0.0
2014-Sep-23 10:29N 47°34' W 052°42'0 0.0
2014-Sep-23 09:32N 47°34' W 052°42'0 0.0
2014-Sep-23 08:26N 47°34' W 052°42'0 0.0
2014-Sep-23 07:08N 47°34' W 052°42'0 0.0
2014-Sep-23 05:32N 47°34' W 052°42'0 0.0
2014-Sep-23 02:29N 47°34' W 052°42'0 0.0
2014-Sep-23 01:29N 47°34' W 052°42'0 0.0
2014-Sep-23 00:32N 47°34' W 052°42'0 0.0
2014-Sep-22 23:29N 47°34' W 052°42'0 0.0
2014-Sep-22 22:32N 47°34' W 052°42'0 0.0
2014-Sep-22 21:32N 47°34' W 052°42'0 0.0
2014-Sep-22 20:31N 47°34' W 052°42'0 0.0
2014-Sep-22 19:30N 47°34' W 052°42'0 0.0
2014-Sep-22 18:33N 47°34' W 052°42'0 0.0
2014-Sep-22 17:31N 47°34' W 052°42'0 0.0
2014-Sep-22 16:30N 47°34' W 052°42'0 0.0
2014-Sep-22 15:29N 47°34' W 052°42'0 0.0
2014-Sep-22 14:31N 47°34' W 052°42'0 0.0
2014-Sep-22 13:33N 47°34' W 052°42'0 0.0
2014-Sep-22 12:32N 47°34' W 052°42'0 0.0
2014-Sep-22 11:31N 47°34' W 052°42'0 0.0
2014-Sep-22 10:30N 47°34' W 052°42'0 0.0
2014-Sep-22 09:29N 47°34' W 052°42'0 0.0
2014-Sep-22 08:33N 47°34' W 052°42'0 0.0
2014-Sep-22 07:31N 47°34' W 052°42'0 0.0
2014-Sep-22 06:30N 47°34' W 052°42'0 0.0
2014-Sep-22 05:28N 47°34' W 052°42'0 0.0
2014-Sep-22 04:32N 47°34' W 052°42'0 0.0
2014-Sep-22 03:32N 47°34' W 052°42'0 0.0
2014-Sep-22 02:30N 47°34' W 052°42'0 0.0
2014-Sep-22 01:30N 47°34' W 052°42'0 0.0
2014-Sep-22 00:29N 47°34' W 052°42'0 0.0
2014-Sep-21 23:33N 47°34' W 052°42'0 0.0
2014-Sep-21 22:32N 47°34' W 052°42'0 0.0
2014-Sep-21 21:30N 47°34' W 052°42'0 0.0
2014-Sep-21 20:31N 47°34' W 052°42'0 0.0
2014-Sep-21 19:32N 47°34' W 052°42'0 0.0
2014-Sep-21 18:32N 47°34' W 052°42'0 0.0
2014-Sep-21 17:29N 47°34' W 052°42'0 0.0
2014-Sep-21 16:31N 47°34' W 052°42'0 0.4
2014-Sep-21 15:33N 47°34' W 052°42'0 0.0
2014-Sep-21 14:32N 47°34' W 052°42'0 0.0
2014-Sep-21 13:27N 47°34' W 052°42'0 0.0
2014-Sep-21 12:31N 47°34' W 052°42'0 0.0
2014-Sep-21 11:30N 47°34' W 052°42'0 0.0
2014-Sep-21 10:33N 47°34' W 052°42'0 0.0
2014-Sep-21 09:32N 47°34' W 052°42'0 0.0
2014-Sep-21 08:33N 47°34' W 052°42'0 0.0
2014-Sep-21 07:33N 47°34' W 052°42'0 0.0
2014-Sep-21 06:32N 47°34' W 052°42'0 0.0
2014-Sep-21 05:14N 47°34' W 052°42'0 0.0
2014-Sep-21 04:21N 47°34' W 052°42'0 0.0
2014-Sep-21 03:28N 47°34' W 052°42'0 0.0
2014-Sep-21 02:31N 47°34' W 052°42'0 0.0
2014-Sep-21 01:30N 47°34' W 052°42'0 0.0
2014-Sep-21 00:31N 47°34' W 052°42'0 0.0
2014-Sep-20 23:30N 47°34' W 052°42'2 1.9
2014-Sep-20 22:27N 47°34' W 052°39'  
2014-Sep-15 18:22N 46°34' W 072°06'1012.5
2014-Sep-15 17:33N 46°26' W 072°16'1313.1
2014-Sep-15 16:33N 46°20' W 072°33'1212.0
2014-Sep-15 15:33N 46°13' W 072°47'2412.2
2014-Sep-15 13:33N 45°56' W 073°13'1413.0
2014-Sep-15 12:27N 45°44' W 073°24'9 1.0
2014-Sep-15 04:18N 45°37' W 073°30'3 3.0
2014-Sep-15 03:22N 45°39' W 073°28'7 8.4
2014-Sep-15 02:33N 45°45' W 073°24'9 9.0
2014-Sep-15 01:33N 45°52' W 073°15'24 8.1
2014-Sep-14 22:33N 46°11' W 072°54'10 9.8
2014-Sep-14 21:33N 46°16' W 072°41'8 8.3
2014-Sep-14 20:33N 46°21' W 072°31'9 9.1
2014-Sep-14 19:33N 46°26' W 072°21'9 8.5
2014-Sep-14 18:33N 46°32' W 072°11'9 8.8
2014-Sep-14 17:34N 46°36' W 072°00'  
Track history (hours):
 
Tides and Currents Weather Stations Pressure Air Temp Water Temp Dewpoint Dewpoint Depression Visibility Wind Speed Wind Dir Waves Ship Positions

Nanticoke

Last reported at 2014-Sep-23 15:26 UTC. Time now 2014-Sep-23 16:23 UTC.
Position N 47°34' W 052°41'.

Length 222 m; draft 7.4 m.

Type: Cargo ship. MMSI: 316043000.

Date/timePositionNaut miles runAvg speedWind from/ knotsBaromVisibWave heightAir tempDewpointWater temp
2014-Sep-23 15:26N 47°34' W 052°41'1 0.5
2014-Sep-23 14:23N 47°34' W 052°42'0 0.0
2014-Sep-23 12:20N 47°34' W 052°42'0 0.0
2014-Sep-23 11:23N 47°34' W 052°42'0 0.0
2014-Sep-23 10:29N 47°34' W 052°42'0 0.0
2014-Sep-23 09:32N 47°34' W 052°42'0 0.0
2014-Sep-23 08:26N 47°34' W 052°42'0 0.0
2014-Sep-23 07:08N 47°34' W 052°42'0 0.0
2014-Sep-23 05:32N 47°34' W 052°42'0 0.0
2014-Sep-23 02:29N 47°34' W 052°42'0 0.0
2014-Sep-23 01:29N 47°34' W 052°42'0 0.0
2014-Sep-23 00:32N 47°34' W 052°42'0 0.0
2014-Sep-22 23:29N 47°34' W 052°42'0 0.0
2014-Sep-22 22:32N 47°34' W 052°42'0 0.0
2014-Sep-22 21:32N 47°34' W 052°42'0 0.0
2014-Sep-22 20:31N 47°34' W 052°42'0 0.0
2014-Sep-22 19:30N 47°34' W 052°42'0 0.0
2014-Sep-22 18:33N 47°34' W 052°42'0 0.0
2014-Sep-22 17:31N 47°34' W 052°42'0 0.0
2014-Sep-22 16:30N 47°34' W 052°42'0 0.0
2014-Sep-22 15:29N 47°34' W 052°42'0 0.0
2014-Sep-22 14:31N 47°34' W 052°42'0 0.0
2014-Sep-22 13:33N 47°34' W 052°42'0 0.0
2014-Sep-22 12:32N 47°34' W 052°42'0 0.0
2014-Sep-22 11:31N 47°34' W 052°42'0 0.0
2014-Sep-22 10:30N 47°34' W 052°42'0 0.0
2014-Sep-22 09:29N 47°34' W 052°42'0 0.0
2014-Sep-22 08:33N 47°34' W 052°42'0 0.0
2014-Sep-22 07:31N 47°34' W 052°42'0 0.0
2014-Sep-22 06:30N 47°34' W 052°42'0 0.0
2014-Sep-22 05:28N 47°34' W 052°42'0 0.0
2014-Sep-22 04:32N 47°34' W 052°42'0 0.0
2014-Sep-22 03:32N 47°34' W 052°42'0 0.0
2014-Sep-22 02:30N 47°34' W 052°42'0 0.0
2014-Sep-22 01:30N 47°34' W 052°42'0 0.0
2014-Sep-22 00:29N 47°34' W 052°42'0 0.0
2014-Sep-21 23:33N 47°34' W 052°42'0 0.0
2014-Sep-21 22:32N 47°34' W 052°42'0 0.0
2014-Sep-21 21:30N 47°34' W 052°42'0 0.0
2014-Sep-21 20:31N 47°34' W 052°42'0 0.0
2014-Sep-21 19:32N 47°34' W 052°42'0 0.0
2014-Sep-21 18:32N 47°34' W 052°42'0 0.0
2014-Sep-21 17:29N 47°34' W 052°42'0 0.0
2014-Sep-21 16:31N 47°34' W 052°42'0 0.4
2014-Sep-21 15:33N 47°34' W 052°42'0 0.0
2014-Sep-21 14:32N 47°34' W 052°42'0 0.0
2014-Sep-21 13:27N 47°34' W 052°42'0 0.0
2014-Sep-21 12:31N 47°34' W 052°42'0 0.0
2014-Sep-21 11:30N 47°34' W 052°42'0 0.0
2014-Sep-21 10:33N 47°34' W 052°42'0 0.0
2014-Sep-21 09:32N 47°34' W 052°42'0 0.0
2014-Sep-21 08:33N 47°34' W 052°42'0 0.0
2014-Sep-21 07:33N 47°34' W 052°42'0 0.0
2014-Sep-21 06:32N 47°34' W 052°42'0 0.0
2014-Sep-21 05:14N 47°34' W 052°42'0 0.0
2014-Sep-21 04:21N 47°34' W 052°42'0 0.0
2014-Sep-21 03:28N 47°34' W 052°42'0 0.0
2014-Sep-21 02:31N 47°34' W 052°42'0 0.0
2014-Sep-21 01:30N 47°34' W 052°42'0 0.0
2014-Sep-21 00:31N 47°34' W 052°42'0 0.0
2014-Sep-20 23:30N 47°34' W 052°42'2 1.9
2014-Sep-20 22:27N 47°34' W 052°39'  
2014-Sep-15 18:22N 46°34' W 072°06'1012.5
2014-Sep-15 17:33N 46°26' W 072°16'1313.1
2014-Sep-15 16:33N 46°20' W 072°33'1212.0
2014-Sep-15 15:33N 46°13' W 072°47'2412.2
2014-Sep-15 13:33N 45°56' W 073°13'1413.0
2014-Sep-15 12:27N 45°44' W 073°24'9 1.0
2014-Sep-15 04:18N 45°37' W 073°30'3 3.0
2014-Sep-15 03:22N 45°39' W 073°28'7 8.4
2014-Sep-15 02:33N 45°45' W 073°24'9 9.0
2014-Sep-15 01:33N 45°52' W 073°15'24 8.1
2014-Sep-14 22:33N 46°11' W 072°54'10 9.8
2014-Sep-14 21:33N 46°16' W 072°41'8 8.3
2014-Sep-14 20:33N 46°21' W 072°31'9 9.1
2014-Sep-14 19:33N 46°26' W 072°21'9 8.5
2014-Sep-14 18:33N 46°32' W 072°11'9 8.8
2014-Sep-14 17:34N 46°36' W 072°00'  

Dump ship's entire track history